Boca Chica, Texas
Current Conditions -  °F | °C
As of 11:53 AM on Sunday 25 Jan 2015 (Local Time) from KBRO Reporting Station
Clear Clear  
Wind Chill: 64°   Ceiling: Unl
Heat Index: 64°   Visibility: 10mi
Dew Point: 49°   Wind: 5mph
Humidity: 58%   Direction: NA
Pressure: 30.18"   Gusts: NA
Location:  26.0002°N, 97.5729°W
Report Text: KBRO 251753Z VRB04KT 10SM CLR 18/09 A3018 RMK AO2 SLP217 T01780094 10178 20072 50013
Loading
Personal Weather Stations






























Interactive Weather Map New forecast layout! Learn more

10-Day Weather Forecast

Advertisements
Track Severe Weather on mobile